Time;durP1;ratioP1;P1;durP2;ratioP2;P2;SDS_P1;SDS_P2;PMS_P1;PMS_P2;Temp;Humidity;BMP_temperature;BMP_pressure;BME280_temperature;BME280_humidity;BME280_pressure;Samples;Min_cycle;Max_cycle;Signal;HPM_P1;HPM_P2
2021/10/17 00:00:18;;;;;;;7.53;4.87;;;10.30;99.90;;;;;;5005515;28;20294;-50
2021/10/17 00:02:46;;;;;;;10.23;5.00;;;10.10;99.90;;;;;;5003708;28;20634;-50
2021/10/17 00:05:13;;;;;;;9.00;4.50;;;10.00;99.90;;;;;;5005420;28;20667;-50
2021/10/17 00:07:41;;;;;;;10.27;4.70;;;10.00;99.90;;;;;;4995204;28;20223;-50
2021/10/17 00:10:11;;;;;;;9.00;5.00;;;10.10;99.90;;;;;;4991285;28;20236;-50
2021/10/17 00:12:38;;;;;;;9.37;5.87;;;10.20;99.90;;;;;;4994039;28;20243;-50
2021/10/17 00:15:07;;;;;;;8.10;4.83;;;10.30;99.90;;;;;;4993388;28;20858;-50
2021/10/17 00:17:33;;;;;;;8.40;5.40;;;10.30;99.90;;;;;;5001252;28;20674;-50
2021/10/17 00:20:00;;;;;;;12.53;5.97;;;10.40;99.90;;;;;;5004656;28;20300;-50
2021/10/17 00:22:27;;;;;;;16.00;6.87;;;10.40;99.90;;;;;;5006798;28;20266;-50
2021/10/17 00:24:54;;;;;;;10.53;6.10;;;10.40;97.20;;;;;;5005577;28;20232;-50
2021/10/17 00:27:21;;;;;;;12.93;6.07;;;10.30;94.80;;;;;;5007812;28;20258;-50
2021/10/17 00:29:47;;;;;;;11.23;6.73;;;10.20;97.40;;;;;;5004900;28;20566;-50
2021/10/17 00:32:14;;;;;;;13.00;6.40;;;10.00;99.90;;;;;;5003392;28;20247;-50
2021/10/17 00:34:41;;;;;;;10.13;6.27;;;9.80;99.90;;;;;;5004195;28;20206;-50
2021/10/17 00:37:08;;;;;;;11.67;5.70;;;9.80;99.90;;;;;;4999205;28;20343;-50
2021/10/17 00:39:35;;;;;;;11.23;5.87;;;9.80;99.90;;;;;;5003459;28;20227;-50
2021/10/17 00:42:04;;;;;;;10.40;5.93;;;10.00;99.90;;;;;;5003872;28;20664;-51
2021/10/17 00:44:32;;;;;;;12.90;6.30;;;10.00;99.90;;;;;;5000446;28;20204;-51
2021/10/17 00:46:59;;;;;;;10.47;6.57;;;10.10;99.90;;;;;;5005415;28;20618;-50
2021/10/17 00:49:26;;;;;;;12.10;5.73;;;10.10;99.90;;;;;;5011174;28;20218;-50
2021/10/17 00:51:53;;;;;;;11.87;5.73;;;10.00;99.90;;;;;;5009827;28;20337;-50
2021/10/17 00:54:21;;;;;;;11.67;5.27;;;10.10;99.90;;;;;;5009459;28;20285;-50
2021/10/17 00:56:48;;;;;;;7.53;5.23;;;10.20;99.90;;;;;;5009169;28;20205;-50
2021/10/17 00:59:15;;;;;;;13.70;5.33;;;10.10;99.90;;;;;;5010969;28;20241;-50
2021/10/17 01:01:42;;;;;;;9.57;5.60;;;10.20;99.90;;;;;;5010135;28;20261;-50
2021/10/17 01:04:09;;;;;;;6.20;4.70;;;10.20;99.90;;;;;;5007039;28;20314;-50
2021/10/17 01:06:37;;;;;;;9.90;4.50;;;10.10;99.90;;;;;;5010055;28;20322;-50
2021/10/17 01:09:05;;;;;;;6.40;4.70;;;10.10;99.90;;;;;;5010970;28;20719;-50
2021/10/17 01:11:43;;;;;;;11.10;5.13;;;10.10;99.90;;;;;;5010171;28;20207;-50
2021/10/17 01:14:18;;;;;;;10.10;5.10;;;9.80;99.90;;;;;;5009575;28;20222;-50
2021/10/17 01:16:45;;;;;;;11.53;5.10;;;9.70;99.90;;;;;;5010581;28;20212;-50
2021/10/17 01:19:12;;;;;;;7.27;4.90;;;9.80;99.90;;;;;;5011277;28;20587;-50
2021/10/17 01:21:40;;;;;;;8.93;5.00;;;9.90;99.90;;;;;;5010236;28;20226;-50
2021/10/17 01:24:08;;;;;;;7.90;4.77;;;9.70;99.90;;;;;;5009412;28;20281;-50
2021/10/17 01:26:34;;;;;;;9.70;5.17;;;9.80;99.90;;;;;;5011652;28;20244;-50
2021/10/17 01:29:02;;;;;;;8.87;4.73;;;9.90;99.90;;;;;;5011171;28;20662;-50
2021/10/17 01:31:41;;;;;;;8.13;4.77;;;9.80;99.90;;;;;;5010310;28;20281;-50
2021/10/17 01:34:09;;;;;;;11.73;4.87;;;9.60;99.90;;;;;;5011112;28;20212;-50
2021/10/17 01:36:38;;;;;;;9.67;5.07;;;9.60;99.90;;;;;;5009099;28;20230;-50
2021/10/17 01:39:07;;;;;;;9.10;4.97;;;9.80;99.90;;;;;;5011300;28;20203;-50
2021/10/17 01:41:34;;;;;;;9.53;4.63;;;9.70;99.90;;;;;;5010137;28;20240;-50
2021/10/17 01:44:02;;;;;;;8.37;4.47;;;9.80;99.90;;;;;;5010142;28;20250;-51
2021/10/17 01:46:29;;;;;;;10.83;4.27;;;9.80;99.90;;;;;;5010619;28;20717;-50
2021/10/17 01:48:56;;;;;;;15.27;5.47;;;9.50;99.90;;;;;;5011060;28;20221;-50
2021/10/17 01:51:23;;;;;;;10.57;4.70;;;9.40;99.90;;;;;;5008593;28;20397;-50
2021/10/17 01:53:50;;;;;;;12.90;5.10;;;9.50;99.90;;;;;;5008525;28;20244;-50
2021/10/17 01:56:17;;;;;;;6.73;4.57;;;9.60;99.90;;;;;;5009624;28;20252;-50
2021/10/17 01:58:44;;;;;;;12.37;5.27;;;9.60;99.90;;;;;;5010544;28;20225;-50
2021/10/17 02:01:11;;;;;;;9.10;5.10;;;9.70;99.90;;;;;;5009568;28;20205;-50
2021/10/17 02:03:38;;;;;;;9.90;4.93;;;9.70;99.90;;;;;;5010308;28;20626;-50
2021/10/17 02:06:05;;;;;;;7.93;4.40;;;9.70;99.90;;;;;;5007598;28;20206;-50
2021/10/17 02:08:32;;;;;;;11.27;5.77;;;9.70;99.90;;;;;;5009727;28;20195;-50
2021/10/17 02:10:58;;;;;;;8.03;4.37;;;9.70;99.90;;;;;;5006899;28;20646;-50
2021/10/17 02:13:25;;;;;;;9.80;5.37;;;9.40;99.90;;;;;;5006728;28;20639;-50
2021/10/17 02:15:52;;;;;;;8.43;4.73;;;9.10;99.90;;;;;;5007442;28;20207;-50
2021/10/17 02:18:19;;;;;;;9.90;5.03;;;9.10;99.90;;;;;;5004208;28;20214;-50
2021/10/17 02:20:46;;;;;;;10.50;5.10;;;9.10;99.90;;;;;;5008611;28;20232;-50
2021/10/17 02:23:13;;;;;;;8.27;4.80;;;9.20;99.90;;;;;;5003697;28;20224;-50
2021/10/17 02:25:40;;;;;;;8.60;5.57;;;9.30;99.90;;;;;;5007177;28;20259;-50
2021/10/17 02:28:07;;;;;;;8.27;5.27;;;9.40;99.90;;;;;;5009856;28;20563;-51
2021/10/17 02:30:34;;;;;;;8.77;4.77;;;9.40;99.90;;;;;;5008193;28;20193;-50
2021/10/17 02:33:01;;;;;;;8.87;5.37;;;9.30;99.90;;;;;;5006703;28;20213;-51
2021/10/17 02:35:28;;;;;;;12.13;5.53;;;9.00;99.90;;;;;;5007304;28;20521;-50
2021/10/17 02:37:55;;;;;;;7.90;5.63;;;9.10;99.90;;;;;;5004005;28;20233;-50
2021/10/17 02:40:22;;;;;;;10.17;5.23;;;9.10;99.90;;;;;;5005838;28;20204;-50
2021/10/17 02:42:49;;;;;;;10.93;5.43;;;9.30;99.90;;;;;;5004459;28;20577;-50
2021/10/17 02:45:16;;;;;;;7.87;4.97;;;9.40;99.90;;;;;;5008303;28;20201;-50
2021/10/17 02:47:43;;;;;;;8.47;5.63;;;9.50;99.90;;;;;;5004569;28;20202;-50
2021/10/17 02:50:10;;;;;;;7.77;5.27;;;9.40;99.90;;;;;;5005251;28;20221;-50
2021/10/17 02:52:37;;;;;;;15.33;5.93;;;9.30;99.90;;;;;;5010419;28;20233;-50
2021/10/17 02:55:05;;;;;;;9.57;5.47;;;9.20;99.90;;;;;;5001817;28;20205;-50
2021/10/17 02:57:32;;;;;;;10.63;5.10;;;9.00;99.90;;;;;;5006286;28;20568;-50
2021/10/17 02:59:59;;;;;;;6.63;5.47;;;9.00;99.90;;;;;;5008316;28;20210;-50
2021/10/17 03:02:26;;;;;;;8.57;5.40;;;9.20;99.90;;;;;;5007220;28;20219;-50
2021/10/17 03:04:53;;;;;;;9.53;5.20;;;9.20;99.90;;;;;;5004266;28;20209;-50
2021/10/17 03:07:20;;;;;;;6.70;4.77;;;9.40;99.90;;;;;;5002836;28;20209;-50
2021/10/17 03:09:47;;;;;;;7.27;4.87;;;9.50;99.90;;;;;;5006273;28;20715;-50
2021/10/17 03:12:13;;;;;;;8.90;5.33;;;9.40;99.90;;;;;;5007077;28;20237;-50
2021/10/17 03:14:40;;;;;;;11.10;5.50;;;9.50;99.90;;;;;;5005803;28;20581;-50
2021/10/17 03:17:07;;;;;;;10.77;5.67;;;9.50;99.90;;;;;;5006254;28;20234;-50
2021/10/17 03:19:34;;;;;;;9.67;5.53;;;9.50;99.90;;;;;;5006438;28;20252;-51
2021/10/17 03:22:01;;;;;;;11.53;5.53;;;9.70;99.90;;;;;;5007417;28;20294;-49
2021/10/17 03:24:27;;;;;;;7.37;4.80;;;9.50;99.90;;;;;;5007956;28;20210;-51
2021/10/17 03:26:54;;;;;;;10.30;5.63;;;9.40;99.90;;;;;;5007567;28;20332;-50
2021/10/17 03:29:21;;;;;;;10.03;5.40;;;9.30;99.90;;;;;;5006232;28;20760;-51
2021/10/17 03:31:49;;;;;;;10.53;5.00;;;9.40;99.90;;;;;;5007801;28;20290;-51
2021/10/17 03:34:16;;;;;;;11.90;5.73;;;9.30;99.90;;;;;;5008690;28;20208;-51
2021/10/17 03:36:42;;;;;;;8.97;5.23;;;9.10;99.90;;;;;;5004111;28;20222;-51
2021/10/17 03:39:09;;;;;;;10.30;5.60;;;9.20;99.90;;;;;;5008440;28;20803;-52
2021/10/17 03:41:36;;;;;;;8.83;5.77;;;9.10;99.90;;;;;;5002034;28;20235;-51
2021/10/17 03:44:04;;;;;;;11.93;6.07;;;9.00;99.90;;;;;;5003154;28;20682;-51
2021/10/17 03:46:31;;;;;;;10.67;5.83;;;9.00;99.90;;;;;;5007255;28;20200;-51
2021/10/17 03:48:58;;;;;;;10.30;5.50;;;9.20;99.90;;;;;;5004887;28;20204;-51
2021/10/17 03:51:24;;;;;;;9.13;5.97;;;9.10;99.90;;;;;;5001841;28;20306;-51
2021/10/17 03:53:51;;;;;;;8.07;5.07;;;8.90;99.90;;;;;;5002353;28;20239;-51
2021/10/17 03:56:18;;;;;;;10.43;6.47;;;9.00;99.90;;;;;;5005503;28;20315;-51
2021/10/17 03:58:45;;;;;;;10.40;5.97;;;8.70;99.90;;;;;;5002715;28;20260;-51
2021/10/17 04:01:12;;;;;;;12.50;5.53;;;8.80;99.90;;;;;;5003147;28;20198;-51
2021/10/17 04:03:39;;;;;;;10.17;6.33;;;8.70;99.90;;;;;;5004817;28;20663;-50
2021/10/17 04:06:09;;;;;;;8.27;5.27;;;8.90;99.90;;;;;;4998923;28;20206;-50
2021/10/17 04:08:36;;;;;;;6.50;5.30;;;9.00;99.90;;;;;;5002657;28;20210;-51
2021/10/17 04:11:02;;;;;;;11.53;5.87;;;8.90;99.90;;;;;;5003512;28;20577;-51
2021/10/17 04:13:29;;;;;;;11.00;6.20;;;8.90;99.90;;;;;;5003233;28;20712;-51
2021/10/17 04:15:59;;;;;;;9.73;5.53;;;8.90;99.90;;;;;;5003892;28;20225;-51
2021/10/17 04:18:26;;;;;;;14.53;5.73;;;8.80;99.90;;;;;;5003243;28;20295;-51
2021/10/17 04:20:53;;;;;;;9.60;5.23;;;8.70;99.90;;;;;;5006592;28;20212;-50
2021/10/17 04:23:19;;;;;;;9.83;5.57;;;8.80;99.90;;;;;;5006588;28;20221;-51
2021/10/17 04:25:46;;;;;;;8.63;5.60;;;8.80;99.90;;;;;;5004832;28;20304;-51
2021/10/17 04:28:13;;;;;;;10.13;4.97;;;8.80;99.90;;;;;;5005255;28;20218;-51
2021/10/17 04:30:40;;;;;;;10.03;5.57;;;8.90;99.90;;;;;;5008005;28;20202;-50
2021/10/17 04:33:07;;;;;;;12.37;5.77;;;8.90;99.90;;;;;;5008256;28;20645;-51
2021/10/17 04:35:37;;;;;;;14.40;6.17;;;8.80;99.90;;;;;;5005526;28;20290;-51
2021/10/17 04:38:05;;;;;;;8.60;5.10;;;8.90;99.90;;;;;;5004802;28;20228;-51
2021/10/17 04:40:34;;;;;;;8.40;5.57;;;9.00;99.90;;;;;;5007078;28;20248;-51
2021/10/17 04:43:02;;;;;;;12.50;5.80;;;9.00;99.90;;;;;;5004869;28;20214;-51
2021/10/17 04:45:29;;;;;;;7.97;5.53;;;9.10;99.90;;;;;;5006940;28;20245;-51
2021/10/17 04:47:56;;;;;;;11.07;5.50;;;9.20;99.90;;;;;;5007613;28;20195;-52
2021/10/17 04:50:23;;;;;;;8.20;5.80;;;9.10;99.90;;;;;;5007926;28;20253;-51
2021/10/17 04:52:50;;;;;;;11.93;6.53;;;9.00;99.90;;;;;;5005295;28;20225;-52
2021/10/17 04:55:17;;;;;;;8.83;5.97;;;8.80;99.90;;;;;;5004621;28;20612;-51
2021/10/17 04:57:44;;;;;;;10.23;5.67;;;8.70;99.90;;;;;;5006815;28;20206;-51
2021/10/17 05:00:11;;;;;;;12.87;5.83;;;8.80;99.90;;;;;;5006682;28;20216;-50
2021/10/17 05:02:37;;;;;;;8.47;5.90;;;8.90;99.90;;;;;;5006165;28;20766;-50
2021/10/17 05:05:08;;;;;;;10.00;6.00;;;9.10;99.90;;;;;;5004899;28;20201;-51
2021/10/17 05:07:35;;;;;;;8.77;6.20;;;9.10;99.90;;;;;;5007552;28;20203;-51
2021/10/17 05:10:02;;;;;;;12.40;6.07;;;9.30;99.90;;;;;;5007182;28;20202;-51
2021/10/17 05:12:29;;;;;;;8.40;6.63;;;9.00;99.90;;;;;;5003487;28;20232;-51
2021/10/17 05:14:56;;;;;;;10.53;6.43;;;8.80;99.90;;;;;;5006396;28;20250;-51
2021/10/17 05:17:23;;;;;;;8.07;6.07;;;8.90;99.90;;;;;;4990894;28;21276;-51
2021/10/17 05:19:50;;;;;;;9.00;6.43;;;8.80;99.90;;;;;;5004281;28;20229;-50
2021/10/17 05:22:17;;;;;;;10.50;6.30;;;8.70;99.90;;;;;;5002700;28;20201;-51
2021/10/17 05:24:43;;;;;;;12.07;5.80;;;8.80;99.90;;;;;;5005832;28;20216;-51
2021/10/17 05:27:10;;;;;;;9.73;6.23;;;8.70;99.90;;;;;;5007823;28;20763;-51
2021/10/17 05:29:37;;;;;;;12.23;7.00;;;8.70;99.90;;;;;;5006854;28;20349;-51
2021/10/17 05:32:04;;;;;;;11.73;6.77;;;8.70;99.90;;;;;;5006928;28;20199;-51
2021/10/17 05:34:31;;;;;;;11.97;6.93;;;8.60;99.90;;;;;;5004159;28;20650;-51
2021/10/17 05:36:58;;;;;;;11.60;6.10;;;8.60;99.90;;;;;;5004376;28;20257;-51
2021/10/17 05:39:25;;;;;;;10.27;6.70;;;8.80;99.90;;;;;;5001158;28;20265;-51
2021/10/17 05:41:52;;;;;;;13.30;7.77;;;9.00;99.90;;;;;;5006625;28;20205;-51
2021/10/17 05:44:19;;;;;;;12.20;6.77;;;8.90;99.90;;;;;;5006131;28;20217;-51
2021/10/17 05:46:46;;;;;;;17.07;7.10;;;8.90;99.90;;;;;;5002836;28;20331;-50
2021/10/17 05:49:12;;;;;;;12.80;7.17;;;8.90;99.90;;;;;;5005107;28;20221;-51
2021/10/17 05:51:39;;;;;;;14.50;6.87;;;8.90;99.90;;;;;;5002387;28;20208;-51
2021/10/17 05:54:06;;;;;;;10.97;6.70;;;9.00;99.90;;;;;;5007365;28;20201;-51
2021/10/17 05:56:33;;;;;;;12.23;6.70;;;9.20;99.90;;;;;;5004530;28;20663;-51
2021/10/17 05:59:00;;;;;;;9.57;7.00;;;9.30;99.90;;;;;;5005120;28;20203;-51
2021/10/17 06:01:27;;;;;;;10.87;6.47;;;9.10;99.90;;;;;;5000841;28;20578;-51
2021/10/17 06:03:54;;;;;;;14.07;7.17;;;9.00;99.90;;;;;;5005907;28;20220;-51
2021/10/17 06:06:20;;;;;;;11.07;6.87;;;9.10;99.90;;;;;;5000150;28;20220;-51
2021/10/17 06:08:47;;;;;;;11.73;6.90;;;9.00;99.90;;;;;;5004089;28;20262;-51
2021/10/17 06:11:14;;;;;;;13.67;7.60;;;8.90;99.90;;;;;;5001716;28;20686;-51
2021/10/17 06:13:41;;;;;;;12.83;7.33;;;8.90;99.90;;;;;;5004938;28;20236;-51
2021/10/17 06:16:08;;;;;;;11.20;6.60;;;9.10;99.90;;;;;;5005598;28;20689;-51
2021/10/17 06:18:34;;;;;;;9.73;6.97;;;9.20;99.90;;;;;;5005386;28;20298;-51
2021/10/17 06:21:02;;;;;;;13.57;8.10;;;9.20;99.90;;;;;;5004020;28;20612;-51
2021/10/17 06:23:28;;;;;;;14.77;7.87;;;9.20;99.90;;;;;;5005751;28;20685;-51
2021/10/17 06:25:55;;;;;;;11.27;6.83;;;9.20;99.90;;;;;;5003978;28;20290;-51
2021/10/17 06:28:22;;;;;;;8.93;7.07;;;9.20;99.90;;;;;;5009564;28;22394;-51
2021/10/17 06:30:49;;;;;;;12.20;6.93;;;9.30;99.90;;;;;;5004707;28;20261;-50
2021/10/17 06:33:16;;;;;;;12.00;6.97;;;9.20;99.90;;;;;;5006438;28;20303;-51
2021/10/17 06:35:43;;;;;;;12.80;7.13;;;9.20;99.90;;;;;;5002353;28;20225;-51
2021/10/17 06:38:10;;;;;;;14.37;7.73;;;9.20;99.90;;;;;;5004678;28;20246;-51
2021/10/17 06:40:36;;;;;;;9.37;7.60;;;9.20;99.90;;;;;;5003843;28;20199;-51
2021/10/17 06:43:03;;;;;;;9.40;6.87;;;9.20;99.90;;;;;;5003335;28;20818;-51
2021/10/17 06:45:30;;;;;;;12.30;7.70;;;9.10;99.90;;;;;;5004333;28;20200;-50
2021/10/17 06:47:57;;;;;;;12.30;7.77;;;9.10;99.90;;;;;;5006387;28;20299;-50
2021/10/17 06:50:24;;;;;;;14.80;7.37;;;9.30;99.90;;;;;;5007488;28;20731;-51
2021/10/17 06:52:51;;;;;;;12.47;7.27;;;9.40;99.90;;;;;;5004723;28;20340;-51
2021/10/17 06:55:18;;;;;;;11.90;7.97;;;9.40;99.90;;;;;;5007222;28;20262;-51
2021/10/17 06:57:45;;;;;;;13.30;7.20;;;9.50;99.90;;;;;;5003667;28;20275;-51
2021/10/17 07:00:12;;;;;;;11.43;7.57;;;9.50;99.90;;;;;;5002368;28;20294;-51
2021/10/17 07:02:39;;;;;;;15.37;7.50;;;9.60;99.90;;;;;;5004947;28;20230;-51
2021/10/17 07:05:06;;;;;;;14.87;7.03;;;9.70;99.90;;;;;;5003735;28;20332;-51
2021/10/17 07:07:34;;;;;;;18.43;7.83;;;9.80;99.90;;;;;;5002425;28;20249;-50
2021/10/17 07:10:01;;;;;;;11.00;7.03;;;9.60;99.90;;;;;;5005432;28;20227;-51
2021/10/17 07:12:28;;;;;;;15.87;7.73;;;9.50;99.90;;;;;;5004268;28;20227;-51
2021/10/17 07:14:55;;;;;;;12.63;7.17;;;9.50;99.90;;;;;;5003422;28;20881;-52
2021/10/17 07:17:22;;;;;;;14.37;7.10;;;9.50;99.90;;;;;;5005438;28;20676;-51
2021/10/17 07:19:48;;;;;;;9.77;6.53;;;9.50;99.90;;;;;;5003304;28;20232;-51
2021/10/17 07:22:15;;;;;;;18.03;8.47;;;9.50;99.90;;;;;;5004590;28;20254;-51
2021/10/17 07:24:42;;;;;;;12.73;7.07;;;9.70;99.90;;;;;;5002059;28;20308;-51
2021/10/17 07:27:09;;;;;;;12.03;8.00;;;9.80;99.90;;;;;;5003572;28;20844;-51
2021/10/17 07:29:36;;;;;;;11.03;6.10;;;9.60;99.90;;;;;;5004175;28;20734;-51
2021/10/17 07:32:03;;;;;;;10.80;6.60;;;9.60;99.90;;;;;;5006322;28;20246;-51
2021/10/17 07:34:30;;;;;;;13.03;6.73;;;9.80;99.90;;;;;;5002114;28;20199;-51
2021/10/17 07:36:57;;;;;;;9.90;7.10;;;9.90;99.90;;;;;;5000921;28;20731;-52
2021/10/17 07:39:24;;;;;;;12.93;7.10;;;10.00;99.90;;;;;;5002198;28;20230;-51
2021/10/17 07:41:50;;;;;;;12.23;7.07;;;10.10;99.90;;;;;;5003524;28;20303;-51
2021/10/17 07:44:18;;;;;;;11.97;7.43;;;10.20;99.90;;;;;;5001979;28;20211;-51
2021/10/17 07:46:45;;;;;;;14.60;7.60;;;10.10;99.90;;;;;;5004634;28;20616;-51
2021/10/17 07:49:11;;;;;;;12.97;7.30;;;10.20;99.90;;;;;;5008085;28;20302;-52
2021/10/17 07:51:38;;;;;;;13.00;7.10;;;10.00;99.90;;;;;;5001453;28;20375;-51
2021/10/17 07:54:05;;;;;;;12.13;6.87;;;10.10;99.90;;;;;;5006367;28;22514;-51
2021/10/17 07:56:32;;;;;;;10.43;7.60;;;10.10;99.90;;;;;;5000893;28;20214;-51
2021/10/17 07:58:58;;;;;;;11.17;6.77;;;10.20;99.90;;;;;;5003608;28;20320;-51
2021/10/17 08:01:25;;;;;;;16.60;7.17;;;10.20;99.90;;;;;;5005647;28;20212;-51
2021/10/17 08:03:52;;;;;;;18.23;7.73;;;10.10;99.90;;;;;;5003333;28;20390;-51
2021/10/17 08:06:19;;;;;;;15.27;7.23;;;10.30;99.90;;;;;;5001312;28;20199;-51
2021/10/17 08:08:46;;;;;;;10.23;6.47;;;10.40;99.90;;;;;;5008169;28;20258;-51
2021/10/17 08:11:13;;;;;;;11.93;7.10;;;10.40;99.90;;;;;;5004612;28;20223;-51
2021/10/17 08:13:40;;;;;;;9.67;6.80;;;10.50;99.90;;;;;;5001758;28;20223;-51
2021/10/17 08:16:07;;;;;;;12.13;8.27;;;10.60;99.90;;;;;;5003669;28;20202;-52
2021/10/17 08:18:34;;;;;;;10.27;7.50;;;10.60;99.90;;;;;;5004314;28;20205;-52
2021/10/17 08:21:00;;;;;;;11.33;7.47;;;10.50;99.90;;;;;;5003210;28;20236;-52
2021/10/17 08:23:32;;;;;;;11.13;7.43;;;10.40;99.90;;;;;;5004826;28;20207;-50
2021/10/17 08:25:59;;;;;;;10.83;7.07;;;10.40;99.90;;;;;;5003262;28;20238;-50
2021/10/17 08:28:25;;;;;;;8.97;6.53;;;10.40;99.90;;;;;;5002650;28;20204;-50
2021/10/17 08:30:52;;;;;;;10.27;7.10;;;10.60;99.90;;;;;;5004128;28;20311;-50
2021/10/17 08:33:19;;;;;;;11.43;7.17;;;10.70;99.90;;;;;;5004481;28;20236;-50
2021/10/17 08:35:46;;;;;;;14.67;7.00;;;10.80;99.90;;;;;;5003662;28;20251;-50
2021/10/17 08:38:13;;;;;;;10.70;7.33;;;10.80;99.90;;;;;;5003981;28;20237;-50
2021/10/17 08:40:40;;;;;;;11.63;8.33;;;10.80;99.90;;;;;;5004067;28;20201;-50
2021/10/17 08:43:07;;;;;;;12.23;7.47;;;10.90;99.90;;;;;;5003034;28;20240;-50
2021/10/17 08:45:34;;;;;;;10.73;6.63;;;10.90;99.90;;;;;;5002783;28;20653;-50
2021/10/17 08:48:03;;;;;;;12.73;6.83;;;11.00;99.90;;;;;;5004236;28;20638;-50
2021/10/17 08:50:30;;;;;;;9.10;6.50;;;11.10;99.90;;;;;;5005719;28;20232;-50
2021/10/17 08:52:57;;;;;;;11.80;7.13;;;11.10;99.90;;;;;;5004118;28;20302;-50
2021/10/17 08:55:24;;;;;;;12.13;6.97;;;11.20;99.90;;;;;;5003928;28;20685;-50
2021/10/17 08:57:53;;;;;;;10.47;7.13;;;11.20;99.90;;;;;;5003583;28;20738;-50
2021/10/17 09:00:28;;;;;;;11.60;6.40;;;11.10;99.90;;;;;;5003225;28;20270;-50
2021/10/17 09:02:55;;;;;;;14.07;8.17;;;11.00;99.90;;;;;;5002568;28;20254;-51
2021/10/17 09:05:40;;;;;;;13.00;7.57;;;11.10;99.90;;;;;;5003021;28;20736;-50
2021/10/17 09:08:08;;;;;;;12.03;6.87;;;11.20;99.90;;;;;;5001623;28;20237;-50
2021/10/17 09:10:36;;;;;;;12.23;7.23;;;11.20;99.90;;;;;;5004718;28;20227;-50
2021/10/17 09:13:09;;;;;;;14.13;7.10;;;11.10;99.90;;;;;;5002977;28;20199;-50
2021/10/17 09:15:36;;;;;;;10.67;7.20;;;11.00;99.90;;;;;;5002268;28;20617;-50
2021/10/17 09:18:14;;;;;;;15.43;7.60;;;11.00;99.90;;;;;;5005091;28;20903;-50
2021/10/17 09:20:47;;;;;;;12.40;6.87;;;11.10;99.90;;;;;;5005037;28;20658;-51
2021/10/17 09:23:21;;;;;;;12.73;6.97;;;11.10;99.90;;;;;;5004179;28;20274;-50
2021/10/17 09:25:51;;;;;;;17.03;7.50;;;11.30;99.90;;;;;;5006988;28;20655;-51
2021/10/17 09:28:17;;;;;;;12.57;8.27;;;11.40;99.90;;;;;;5004800;28;20222;-51
2021/10/17 09:31:00;;;;;;;11.93;7.47;;;11.30;99.90;;;;;;5004121;28;20209;-51
2021/10/17 09:33:42;;;;;;;10.50;8.03;;;11.50;99.90;;;;;;5005157;28;20204;-51
2021/10/17 09:36:30;;;;;;;15.97;7.50;;;11.60;99.90;;;;;;5006453;28;20283;-51
2021/10/17 09:39:11;;;;;;;10.00;6.80;;;11.60;99.90;;;;;;5007280;28;20208;-52
2021/10/17 09:41:52;;;;;;;10.27;6.70;;;11.60;99.90;;;;;;5006310;28;20651;-49
2021/10/17 09:44:19;;;;;;;10.57;7.87;;;11.60;99.90;;;;;;5005476;28;20315;-52
2021/10/17 09:46:59;;;;;;;11.83;8.30;;;11.60;99.90;;;;;;5006908;28;20208;-49
2021/10/17 09:49:27;;;;;;;11.57;7.57;;;11.60;99.90;;;;;;5006552;28;20205;-49
2021/10/17 09:52:13;;;;;;;11.97;7.20;;;11.50;99.90;;;;;;5006307;28;20241;-50
2021/10/17 09:54:43;;;;;;;11.93;7.63;;;11.70;99.90;;;;;;5005639;28;20299;-50
2021/10/17 09:57:10;;;;;;;13.07;7.30;;;11.80;99.90;;;;;;5006473;28;20210;-50
2021/10/17 09:59:37;;;;;;;13.97;7.30;;;11.60;99.90;;;;;;5006344;28;20294;-50
2021/10/17 10:02:08;;;;;;;12.87;8.30;;;11.70;99.90;;;;;;5006348;28;20652;-50
2021/10/17 10:04:40;;;;;;;10.97;7.33;;;11.70;99.90;;;;;;5007377;28;20234;-50
2021/10/17 10:07:08;;;;;;;11.73;8.00;;;11.70;99.90;;;;;;5006597;28;20198;-50
2021/10/17 10:09:35;;;;;;;15.13;8.30;;;11.80;99.90;;;;;;5006137;28;20285;-50
2021/10/17 10:12:04;;;;;;;10.00;7.53;;;11.90;99.90;;;;;;5006258;28;20207;-50
2021/10/17 10:14:33;;;;;;;11.07;7.53;;;11.90;99.90;;;;;;5004624;28;20597;-50
2021/10/17 10:17:02;;;;;;;10.50;7.40;;;11.90;99.90;;;;;;5005528;28;20234;-50
2021/10/17 10:19:31;;;;;;;12.97;7.47;;;11.90;99.90;;;;;;5006488;28;20954;-50
2021/10/17 10:21:59;;;;;;;10.67;8.10;;;12.20;99.90;;;;;;5004796;28;20304;-50
2021/10/17 10:24:31;;;;;;;15.60;8.53;;;12.30;99.90;;;;;;5006149;28;20309;-50
2021/10/17 10:26:59;;;;;;;11.27;6.70;;;12.30;99.90;;;;;;5003485;28;20198;-50
2021/10/17 10:29:28;;;;;;;12.23;7.60;;;12.40;98.80;;;;;;5006181;28;20555;-50
2021/10/17 10:31:57;;;;;;;11.13;7.23;;;12.40;99.90;;;;;;5005515;28;20206;-50
2021/10/17 10:34:24;;;;;;;9.50;7.67;;;12.60;99.90;;;;;;5006372;28;20287;-50
2021/10/17 10:36:55;;;;;;;13.83;7.33;;;12.60;97.50;;;;;;5005159;28;20254;-50
2021/10/17 10:39:32;;;;;;;12.40;7.20;;;12.60;90.00;;;;;;5005914;28;20299;-51
2021/10/17 10:42:04;;;;;;;11.80;7.13;;;12.70;90.90;;;;;;5004522;28;20701;-51
2021/10/17 10:44:30;;;;;;;12.87;7.20;;;12.70;99.90;;;;;;5005085;28;20373;-50
2021/10/17 10:47:18;;;;;;;13.77;8.07;;;12.70;94.30;;;;;;5004773;28;20317;-50
2021/10/17 10:49:48;;;;;;;13.87;7.53;;;12.80;69.60;;;;;;5005868;28;21497;-50
2021/10/17 10:52:35;;;;;;;13.10;7.17;;;12.80;75.90;;;;;;5003677;28;20346;-50
2021/10/17 10:55:08;;;;;;;13.67;7.73;;;12.90;65.00;;;;;;4994104;28;20231;-51
2021/10/17 10:57:44;;;;;;;11.77;7.73;;;13.00;92.80;;;;;;5005735;28;20251;-51
2021/10/17 11:00:16;;;;;;;13.07;8.00;;;13.00;50.00;;;;;;5006186;28;20201;-51
2021/10/17 11:03:14;;;;;;;10.97;7.33;;;13.00;82.30;;;;;;5006722;28;20600;-51
2021/10/17 11:06:03;;;;;;;10.37;7.47;;;13.20;73.90;;;;;;5003767;28;20350;-50
2021/10/17 11:08:31;;;;;;;11.00;6.87;;;13.20;17.10;;;;;;5005886;28;20638;-50
2021/10/17 11:10:58;;;;;;;11.53;5.87;;;13.30;35.10;;;;;;5004936;28;20320;-50
2021/10/17 11:13:45;;;;;;;9.37;6.17;;;13.40;1.00;;;;;;5004487;28;20199;-50
2021/10/17 11:16:21;;;;;;;8.90;6.00;;;13.40;1.00;;;;;;5005435;28;20231;-51
2021/10/17 11:18:57;;;;;;;12.20;6.80;;;13.60;29.50;;;;;;5005062;28;20246;-50
2021/10/17 11:21:30;;;;;;;9.43;5.97;;;13.70;1.00;;;;;;5004253;28;20236;-50
2021/10/17 11:23:57;;;;;;;10.77;6.80;;;13.80;1.00;;;;;;5004356;28;20635;-51
2021/10/17 11:26:24;;;;;;;10.00;5.63;;;13.90;1.00;;;;;;5004770;28;20708;-52
2021/10/17 11:28:51;;;;;;;11.03;6.23;;;14.00;1.00;;;;;;5003349;28;20630;-52
2021/10/17 11:31:23;;;;;;;11.33;6.23;;;14.10;1.00;;;;;;5004542;28;20225;-52
2021/10/17 11:33:50;;;;;;;7.40;5.73;;;14.10;1.00;;;;;;5003663;28;20203;-52
2021/10/17 11:36:18;;;;;;;10.37;6.00;;;14.10;1.00;;;;;;5004479;28;20295;-51
2021/10/17 11:38:46;;;;;;;8.73;5.07;;;14.00;1.00;;;;;;5005024;28;20565;-52
2021/10/17 11:41:15;;;;;;;6.73;4.80;;;14.00;1.00;;;;;;5005160;28;20282;-50
2021/10/17 11:43:43;;;;;;;13.87;6.10;;;14.10;1.00;;;;;;5003997;28;20200;-52
2021/10/17 11:46:16;;;;;;;10.83;6.33;;;14.00;1.00;;;;;;5003510;28;20213;-52
2021/10/17 11:48:44;;;;;;;12.03;5.03;;;14.00;1.00;;;;;;5005035;28;20211;-51
2021/10/17 11:51:14;;;;;;;9.63;4.87;;;13.90;1.00;;;;;;5004103;28;20201;-51
2021/10/17 11:53:41;;;;;;;6.10;4.93;;;14.20;1.00;;;;;;5004032;28;20708;-51
2021/10/17 11:56:10;;;;;;;9.13;4.83;;;14.30;1.00;;;;;;5005211;28;20215;-52
2021/10/17 11:58:39;;;;;;;11.20;5.63;;;14.30;1.00;;;;;;5004043;28;20363;-52
2021/10/17 12:01:14;;;;;;;8.73;5.43;;;14.40;1.00;;;;;;5003588;28;20224;-51
2021/10/17 12:03:47;;;;;;;9.67;5.37;;;14.40;1.00;;;;;;5004352;28;20234;-52
2021/10/17 12:06:19;;;;;;;8.50;4.80;;;14.60;1.00;;;;;;5004222;28;20645;-51
2021/10/17 12:08:50;;;;;;;8.50;5.53;;;14.60;1.00;;;;;;5004422;28;20207;-51
2021/10/17 12:11:18;;;;;;;8.73;5.17;;;14.50;1.00;;;;;;5003630;28;20654;-51
2021/10/17 12:13:53;;;;;;;11.47;5.33;;;14.60;1.00;;;;;;5003304;28;20262;-52
2021/10/17 12:16:22;;;;;;;5.27;4.70;;;14.50;1.00;;;;;;5003622;28;20212;-52
2021/10/17 12:18:52;;;;;;;7.77;4.30;;;14.60;1.00;;;;;;5004777;28;20337;-51
2021/10/17 12:21:24;;;;;;;8.10;4.90;;;14.60;1.00;;;;;;5002913;28;20232;-51
2021/10/17 12:23:56;;;;;;;8.17;4.93;;;14.50;1.00;;;;;;5003753;28;20198;-51
2021/10/17 12:26:29;;;;;;;7.07;4.17;;;14.40;1.00;;;;;;5003383;28;20244;-51
2021/10/17 12:29:16;;;;;;;5.80;4.00;;;14.50;1.00;;;;;;5003615;28;20257;-51
2021/10/17 12:32:06;;;;;;;9.40;4.70;;;14.60;1.00;;;;;;5004198;28;20289;-52
2021/10/17 12:34:40;;;;;;;8.60;5.07;;;14.70;1.00;;;;;;5006143;28;20232;-51
2021/10/17 12:37:08;;;;;;;6.90;4.60;;;14.50;1.00;;;;;;5003944;28;20247;-51
2021/10/17 12:39:35;;;;;;;6.13;4.80;;;14.60;1.00;;;;;;5004601;28;20678;-52
2021/10/17 12:42:03;;;;;;;9.47;4.97;;;14.60;1.00;;;;;;5007444;28;20209;-53
2021/10/17 12:44:46;;;;;;;7.40;4.17;;;14.70;1.00;;;;;;5005767;28;20232;-50
2021/10/17 12:47:13;;;;;;;8.50;4.97;;;14.60;1.00;;;;;;5006294;28;20201;-51
2021/10/17 12:49:42;;;;;;;8.20;4.40;;;14.50;1.00;;;;;;5005812;28;20628;-51
2021/10/17 12:52:10;;;;;;;7.93;4.77;;;14.40;1.00;;;;;;5007576;28;20263;-51